Time;durP1;ratioP1;P1;durP2;ratioP2;P2;SDS_P1;SDS_P2;PMS_P1;PMS_P2;Temp;Humidity;BMP_temperature;BMP_pressure;BME280_temperature;BME280_humidity;BME280_pressure;Samples;Min_cycle;Max_cycle;Signal;HPM_P1;HPM_P2
2023/03/19 00:00:12;;;;;;;1.25;0.82;;;;;;;10.93;93.35;101120.69;5034526;27;99259;-32
2023/03/19 00:02:38;;;;;;;3.60;1.50;;;;;;;10.93;92.33;101115.25;5034981;27;98694;-32
2023/03/19 00:05:04;;;;;;;1.05;0.75;;;;;;;10.91;92.88;101118.03;5035627;27;97133;-32
2023/03/19 00:07:30;;;;;;;1.52;1.10;;;;;;;10.91;93.26;101128.03;5033923;28;96893;-31
2023/03/19 00:09:55;;;;;;;1.30;0.88;;;;;;;10.87;93.01;101121.03;5035101;27;97529;-33
2023/03/19 00:12:21;;;;;;;1.80;1.40;;;;;;;10.83;93.53;101121.22;5035082;27;97794;-32
2023/03/19 00:14:46;;;;;;;1.60;1.10;;;;;;;10.83;92.39;101126.63;5035126;27;96739;-33
2023/03/19 00:17:11;;;;;;;2.03;1.13;;;;;;;10.83;94.43;101136.59;5035847;27;96758;-33
2023/03/19 00:19:38;;;;;;;1.17;1.08;;;;;;;10.84;92.79;101135.63;5034958;27;97334;-32
2023/03/19 00:22:03;;;;;;;1.13;1.02;;;;;;;10.88;92.43;101139.91;5033399;28;100794;-32
2023/03/19 00:24:29;;;;;;;2.17;1.25;;;;;;;10.86;92.83;101136.41;5034503;27;96642;-32
2023/03/19 00:26:54;;;;;;;1.35;0.93;;;;;;;10.88;92.37;101133.63;5034283;27;96828;-32
2023/03/19 00:29:20;;;;;;;1.40;1.13;;;;;;;10.87;92.70;101134.56;5034811;27;97909;-32
2023/03/19 00:31:46;;;;;;;2.72;1.38;;;;;;;10.83;92.50;101134.75;5034119;27;97735;-33
2023/03/19 00:34:12;;;;;;;1.58;1.13;;;;;;;10.85;92.57;101140.09;5033743;28;96692;-34
2023/03/19 00:36:38;;;;;;;1.30;1.05;;;;;;;10.81;92.63;101135.81;5033715;28;96913;-33
2023/03/19 00:39:04;;;;;;;1.85;1.33;;;;;;;10.80;92.48;101150.34;5032958;28;101015;-32
2023/03/19 00:41:29;;;;;;;2.28;1.35;;;;;;;10.77;92.11;101145.97;5033546;28;100914;-33
2023/03/19 00:43:56;;;;;;;1.13;1.02;;;;;;;10.81;92.75;101152.06;5034696;27;96634;-32
2023/03/19 00:46:22;;;;;;;2.40;1.40;;;;;;;10.76;92.60;101154.19;5033463;28;96837;-32
2023/03/19 00:48:49;;;;;;;1.52;1.27;;;;;;;10.75;92.05;101150.59;5032719;27;100395;-32
2023/03/19 00:51:15;;;;;;;2.13;1.42;;;;;;;10.75;92.07;101153.31;5033100;28;101008;-32
2023/03/19 00:53:42;;;;;;;1.85;1.17;;;;;;;10.75;92.23;101152.41;5034601;27;96675;-32
2023/03/19 00:56:10;;;;;;;1.70;1.15;;;;;;;10.71;93.04;101149.03;5033442;28;96800;-32
2023/03/19 00:58:37;;;;;;;2.20;1.63;;;;;;;10.73;92.26;101152.53;5034149;27;99351;-33
2023/03/19 01:01:10;;;;;;;2.92;1.52;;;;;;;10.70;92.26;101150.00;5032809;28;100875;-32
2023/03/19 01:03:35;;;;;;;2.00;1.42;;;;;;;10.74;92.40;101158.81;5033414;28;96639;-34
2023/03/19 01:06:01;;;;;;;1.23;0.77;;;;;;;10.78;92.31;101160.38;5033333;28;96922;-32
2023/03/19 01:08:28;;;;;;;2.97;1.20;;;;;;;10.78;92.19;101154.97;5034116;27;99295;-32
2023/03/19 01:10:53;;;;;;;2.70;1.88;;;;;;;10.75;92.09;101157.84;5032727;28;100739;-32
2023/03/19 01:13:19;;;;;;;1.75;1.30;;;;;;;10.75;91.76;101149.69;5033637;27;100287;-33
2023/03/19 01:15:45;;;;;;;2.15;1.50;;;;;;;10.73;91.51;101146.25;5034677;27;96782;-32
2023/03/19 01:18:11;;;;;;;3.88;1.85;;;;;;;10.73;91.35;101148.94;5032646;28;101364;-32
2023/03/19 01:20:40;;;;;;;2.53;1.58;;;;;;;10.76;92.16;101162.31;5032477;28;100803;-32
2023/03/19 01:23:06;;;;;;;2.15;1.60;;;;;;;10.79;91.93;101148.56;5032897;28;96644;-32
2023/03/19 01:25:32;;;;;;;2.53;1.92;;;;;;;10.77;91.63;101147.78;5034593;27;96776;-29
2023/03/19 01:27:57;;;;;;;3.42;1.92;;;;;;;10.79;91.77;101154.84;5031901;28;100958;-29
2023/03/19 01:30:22;;;;;;;9.25;1.55;;;;;;;10.73;92.16;101151.66;5034456;27;97835;-29
2023/03/19 01:32:48;;;;;;;2.13;1.35;;;;;;;10.71;92.06;101153.56;5034205;28;96487;-29
2023/03/19 01:35:14;;;;;;;1.70;1.25;;;;;;;10.74;91.81;101158.81;5034280;27;96732;-30
2023/03/19 01:37:40;;;;;;;2.08;1.58;;;;;;;10.71;92.20;101156.28;5032162;28;100823;-30
2023/03/19 01:40:08;;;;;;;2.85;1.83;;;;;;;10.69;91.15;101153.66;5033651;27;99157;-29
2023/03/19 01:42:33;;;;;;;1.75;1.35;;;;;;;10.65;91.80;101153.91;5034120;27;96704;-29
2023/03/19 01:45:02;;;;;;;1.85;1.25;;;;;;;10.60;92.26;101154.16;5037762;27;96786;-30
2023/03/19 01:47:35;;;;;;;2.22;1.63;;;;;;;10.57;91.81;101154.34;5035773;28;101063;-29
2023/03/19 01:50:01;;;;;;;1.77;1.17;;;;;;;10.56;92.15;101163.47;5037105;28;99135;-30
2023/03/19 01:52:31;;;;;;;2.05;1.38;;;;;;;10.56;92.00;101163.47;5037413;27;96655;-30
2023/03/19 01:55:00;;;;;;;3.15;1.70;;;;;;;10.50;91.45;101169.19;5036620;28;96698;-29
2023/03/19 01:57:27;;;;;;;2.42;1.65;;;;;;;10.44;91.89;101169.53;5037462;28;97407;-30
2023/03/19 01:59:57;;;;;;;1.92;1.30;;;;;;;10.44;92.21;101166.81;5035792;27;101531;-30
2023/03/19 02:02:29;;;;;;;2.42;1.35;;;;;;;10.40;92.26;101168.84;5035318;28;96707;-30
2023/03/19 02:05:08;;;;;;;2.15;1.58;;;;;;;10.39;92.64;101161.66;5037535;28;96762;-30
2023/03/19 02:07:36;;;;;;;3.17;2.00;;;;;;;10.38;92.62;101162.63;5037050;27;100897;-30
2023/03/19 02:10:06;;;;;;;2.47;1.65;;;;;;;10.36;92.09;101159.13;5035496;28;100998;-30
2023/03/19 02:12:31;;;;;;;6.40;1.67;;;;;;;10.34;92.14;101166.47;5035627;27;96725;-29
2023/03/19 02:14:57;;;;;;;2.70;1.90;;;;;;;10.29;92.22;101171.25;5035748;28;96777;-30
2023/03/19 02:17:22;;;;;;;3.67;1.75;;;;;;;10.29;93.35;101173.97;5036915;27;98030;-30
2023/03/19 02:20:07;;;;;;;1.73;1.45;;;;;;;10.26;92.38;101174.97;5037047;27;98974;-31
2023/03/19 02:22:33;;;;;;;2.45;1.73;;;;;;;10.30;92.90;101168.47;5037285;27;96503;-31
2023/03/19 02:25:10;;;;;;;4.13;1.88;;;;;;;10.27;92.66;101165.03;5037215;27;96749;-29
2023/03/19 02:27:35;;;;;;;2.80;1.65;;;;;;;10.24;91.95;101163.38;5033576;27;101025;-30
2023/03/19 02:30:17;;;;;;;2.05;1.38;;;;;;;10.28;92.67;101178.53;5035160;28;100783;-29
2023/03/19 02:32:43;;;;;;;1.73;1.45;;;;;;;10.29;92.50;101177.53;5035366;28;96613;-31
2023/03/19 02:35:09;;;;;;;2.05;1.40;;;;;;;10.28;92.00;101167.69;5037190;27;96748;-30
2023/03/19 02:37:34;;;;;;;2.05;1.30;;;;;;;10.29;92.20;101171.25;5036677;27;97915;-30
2023/03/19 02:40:06;;;;;;;2.53;1.55;;;;;;;10.25;91.72;101181.38;5036397;28;99126;-30
2023/03/19 02:42:32;;;;;;;2.15;1.40;;;;;;;10.18;92.04;101175.41;5036681;27;96646;-30
2023/03/19 02:44:58;;;;;;;2.42;1.42;;;;;;;10.17;92.47;101178.19;5035747;28;96954;-29
2023/03/19 02:47:25;;;;;;;3.05;1.50;;;;;;;10.16;91.87;101169.19;5036680;27;97283;-29
2023/03/19 02:49:50;;;;;;;1.90;1.33;;;;;;;10.14;92.15;101172.97;5034943;28;101118;-31
2023/03/19 02:52:16;;;;;;;1.80;1.10;;;;;;;10.07;92.08;101174.25;5035868;28;96593;-30
2023/03/19 02:54:41;;;;;;;1.98;1.63;;;;;;;10.09;92.17;101184.03;5036113;27;96733;-29
2023/03/19 02:57:06;;;;;;;1.73;1.42;;;;;;;10.02;91.74;101188.03;5036449;27;97935;-30
2023/03/19 02:59:32;;;;;;;2.03;1.42;;;;;;;9.96;91.86;101181.13;5036346;27;97244;-30
2023/03/19 03:01:57;;;;;;;1.73;1.35;;;;;;;9.97;92.19;101177.44;5036644;27;96642;-29
2023/03/19 03:04:22;;;;;;;3.53;1.45;;;;;;;9.97;92.31;101165.75;5036497;27;96759;-29
2023/03/19 03:06:48;;;;;;;2.47;1.58;;;;;;;9.99;91.92;101178.25;5036007;27;98236;-29
2023/03/19 03:09:13;;;;;;;2.28;1.70;;;;;;;9.96;91.70;101174.81;5036455;27;99979;-30
2023/03/19 03:11:40;;;;;;;2.40;1.48;;;;;;;9.90;92.06;101172.44;5036703;27;96487;-30
2023/03/19 03:14:06;;;;;;;1.55;1.23;;;;;;;9.84;92.89;101175.47;5034843;28;96770;-29
2023/03/19 03:16:31;;;;;;;2.85;1.58;;;;;;;9.76;92.39;101176.75;5035670;28;97982;-30
2023/03/19 03:18:57;;;;;;;1.55;1.15;;;;;;;9.75;92.44;101176.84;5035679;27;99289;-29
2023/03/19 03:21:23;;;;;;;4.88;2.60;;;;;;;9.71;91.90;101178.84;5034516;28;96576;-29
2023/03/19 03:23:48;;;;;;;3.25;2.10;;;;;;;9.71;92.75;101181.53;5036569;27;96783;-30
2023/03/19 03:26:14;;;;;;;3.47;2.08;;;;;;;9.68;92.00;101180.84;5035084;27;99205;-30
2023/03/19 03:28:40;;;;;;;3.10;1.75;;;;;;;9.65;92.91;101181.84;5034287;28;101211;-30
2023/03/19 03:31:05;;;;;;;2.33;1.60;;;;;;;9.66;92.79;101189.03;5036158;28;96469;-29
2023/03/19 03:33:31;;;;;;;4.03;2.80;;;;;;;9.60;92.88;101192.03;5036443;28;96828;-30
2023/03/19 03:35:57;;;;;;;3.97;2.42;;;;;;;9.54;92.36;101190.53;5034014;28;101398;-29
2023/03/19 03:38:22;;;;;;;3.17;2.45;;;;;;;9.48;93.03;101185.44;5035719;27;97232;-31
2023/03/19 03:40:51;;;;;;;4.68;2.80;;;;;;;9.49;92.46;101180.94;5035512;27;96445;-29
2023/03/19 03:43:18;;;;;;;6.28;2.65;;;;;;;9.45;92.73;101179.31;5034757;28;96756;-29
2023/03/19 03:45:44;;;;;;;5.03;2.75;;;;;;;9.40;92.07;101179.56;5034009;28;101049;-30
2023/03/19 03:48:09;;;;;;;4.18;2.30;;;;;;;9.44;92.83;101181.16;5034018;28;101077;-29
2023/03/19 03:50:35;;;;;;;3.65;2.10;;;;;;;9.46;92.69;101175.66;5035644;27;96665;-30
2023/03/19 03:53:01;;;;;;;3.53;2.38;;;;;;;9.48;92.50;101168.34;5035366;27;96814;-29
2023/03/19 03:55:27;;;;;;;4.15;2.80;;;;;;;9.47;92.54;101183.69;5035261;27;99302;-29
2023/03/19 03:57:52;;;;;;;3.42;2.42;;;;;;;9.42;93.08;101185.75;5034097;28;99214;-30
2023/03/19 04:00:18;;;;;;;2.75;2.33;;;;;;;9.41;92.75;101193.94;5035643;28;96474;-30
2023/03/19 04:02:44;;;;;;;3.65;2.67;;;;;;;9.39;92.51;101188.63;5034098;28;96830;-30
2023/03/19 04:05:10;;;;;;;3.72;2.22;;;;;;;9.40;93.37;101190.38;5034193;27;97957;-31
2023/03/19 04:07:36;;;;;;;5.93;2.60;;;;;;;9.44;93.09;101182.97;5034380;27;99242;-29
2023/03/19 04:10:02;;;;;;;3.50;2.33;;;;;;;9.48;92.46;101193.53;5033929;28;96606;-29
2023/03/19 04:12:27;;;;;;;3.85;2.75;;;;;;;9.54;93.26;101197.78;5035388;27;96724;-30
2023/03/19 04:14:52;;;;;;;5.40;2.70;;;;;;;9.51;92.25;101196.13;5034921;28;101731;-29
2023/03/19 04:17:18;;;;;;;6.95;3.22;;;;;;;9.49;92.02;101194.44;5034974;27;99197;-29
2023/03/19 04:19:43;;;;;;;2.90;2.28;;;;;;;9.48;92.36;101190.84;5035132;27;96768;-29
2023/03/19 04:22:09;;;;;;;4.97;2.78;;;;;;;9.52;92.16;101196.97;5035448;28;96755;-29
2023/03/19 04:24:34;;;;;;;4.03;2.97;;;;;;;9.48;91.93;101190.84;5035136;27;97883;-30
2023/03/19 04:27:00;;;;;;;4.13;3.13;;;;;;;9.46;92.47;101190.06;5033743;27;97724;-30
2023/03/19 04:29:26;;;;;;;4.18;3.00;;;;;;;9.41;91.53;101199.34;5033162;28;96645;-29
2023/03/19 04:31:51;;;;;;;5.22;3.17;;;;;;;9.30;92.35;101199.91;5035128;27;96734;-30
2023/03/19 04:34:17;;;;;;;5.00;3.70;;;;;;;9.30;92.23;101205.31;5034900;27;97883;-29
2023/03/19 04:36:42;;;;;;;5.97;3.35;;;;;;;9.23;92.91;101202.03;5034666;27;97755;-29
2023/03/19 04:39:08;;;;;;;4.35;3.25;;;;;;;9.21;92.44;101209.34;5033502;27;96665;-30
2023/03/19 04:41:34;;;;;;;7.78;4.25;;;;;;;9.13;92.25;101211.56;5033591;28;96823;-30
2023/03/19 04:44:00;;;;;;;5.38;3.30;;;;;;;9.05;92.93;101208.34;5034928;27;97982;-30
2023/03/19 04:46:25;;;;;;;4.72;3.45;;;;;;;9.04;92.67;101212.91;5034912;27;97738;-29
2023/03/19 04:48:51;;;;;;;4.75;3.75;;;;;;;9.03;93.09;101216.53;5034987;27;96580;-29
2023/03/19 04:51:16;;;;;;;4.88;3.35;;;;;;;9.08;93.46;101213.59;5034608;27;96768;-29
2023/03/19 04:53:41;;;;;;;5.43;3.47;;;;;;;9.19;93.57;101226.59;5034012;27;97976;-30
2023/03/19 04:56:07;;;;;;;4.45;3.15;;;;;;;9.11;92.90;101224.28;5034286;27;99125;-31
2023/03/19 04:58:33;;;;;;;5.72;4.05;;;;;;;9.16;92.58;101232.16;5033229;28;97674;-31
2023/03/19 05:00:59;;;;;;;4.78;2.53;;;;;;;9.06;93.30;101223.63;5033214;28;96894;-31
2023/03/19 05:03:25;;;;;;;4.35;3.03;;;;;;;9.14;93.68;101229.53;5034544;27;97457;-31
2023/03/19 05:05:53;;;;;;;5.85;2.85;;;;;;;9.20;93.05;101240.03;5034165;28;97842;-30
2023/03/19 05:08:18;;;;;;;3.45;2.55;;;;;;;9.23;93.07;101234.47;5033350;28;96550;-29
2023/03/19 05:10:43;;;;;;;4.00;2.78;;;;;;;9.23;92.67;101239.88;5035163;28;96726;-31
2023/03/19 05:13:09;;;;;;;4.75;2.88;;;;;;;9.23;92.88;101231.78;5034026;27;98765;-30
2023/03/19 05:15:34;;;;;;;3.72;2.72;;;;;;;9.24;92.87;101233.50;5034098;27;99186;-30
2023/03/19 05:18:00;;;;;;;3.83;2.83;;;;;;;9.21;93.08;101244.50;5035738;27;96515;-29
2023/03/19 05:20:25;;;;;;;5.65;3.40;;;;;;;9.17;92.71;101242.88;5037867;27;96773;-29
2023/03/19 05:22:52;;;;;;;4.55;3.08;;;;;;;9.21;93.00;101252.59;5036358;28;101425;-29
2023/03/19 05:25:18;;;;;;;3.15;2.53;;;;;;;9.22;93.44;101248.94;5036222;28;100883;-29
2023/03/19 05:27:43;;;;;;;4.65;3.28;;;;;;;9.06;92.92;101265.03;5035892;28;96799;-30
2023/03/19 05:30:09;;;;;;;4.97;3.55;;;;;;;8.96;92.64;101261.00;5038145;27;96611;-30
2023/03/19 05:32:36;;;;;;;5.85;3.70;;;;;;;8.88;93.23;101266.78;5035925;28;101011;-30
2023/03/19 05:35:02;;;;;;;4.85;3.30;;;;;;;8.78;93.09;101276.28;5037697;27;97823;-31
2023/03/19 05:37:28;;;;;;;5.05;3.40;;;;;;;8.74;94.10;101271.97;5036259;27;96592;-31
2023/03/19 05:39:53;;;;;;;5.15;3.47;;;;;;;8.71;94.37;101277.53;5037946;27;96759;-30
2023/03/19 05:42:18;;;;;;;3.80;2.80;;;;;;;8.69;93.85;101274.00;5037046;27;97844;-30
2023/03/19 05:44:44;;;;;;;6.38;3.35;;;;;;;8.65;94.60;101283.19;5037647;27;97766;-31
2023/03/19 05:47:11;;;;;;;5.80;3.78;;;;;;;8.59;94.75;101280.81;5037356;27;96607;-30
2023/03/19 05:49:36;;;;;;;6.10;3.83;;;;;;;8.60;94.79;101287.94;5037492;27;96779;-30
2023/03/19 05:52:02;;;;;;;6.20;3.83;;;;;;;8.61;94.22;101289.72;5035834;28;101465;-29
2023/03/19 05:54:27;;;;;;;5.70;3.28;;;;;;;8.56;94.38;101298.03;5037036;27;98868;-29
2023/03/19 05:56:53;;;;;;;5.80;3.65;;;;;;;8.53;94.02;101299.97;5037734;27;96637;-29
2023/03/19 05:59:19;;;;;;;5.35;3.40;;;;;;;8.52;94.53;101299.09;5038276;27;96756;-29
2023/03/19 06:01:44;;;;;;;4.50;3.08;;;;;;;8.51;95.52;101289.25;5037158;28;97984;-29
2023/03/19 06:04:10;;;;;;;5.72;3.78;;;;;;;8.60;95.35;101294.22;5036834;27;97765;-31
2023/03/19 06:06:35;;;;;;;8.88;3.97;;;;;;;8.62;94.61;101280.66;5036763;27;96540;-30
2023/03/19 06:09:00;;;;;;;5.88;3.67;;;;;;;8.60;95.18;101285.25;5037307;28;96887;-29
2023/03/19 06:11:26;;;;;;;6.38;3.75;;;;;;;8.59;95.58;101284.38;5037050;27;97415;-29
2023/03/19 06:13:51;;;;;;;6.57;3.40;;;;;;;8.58;95.90;101295.22;5036882;27;98805;-29
2023/03/19 06:16:16;;;;;;;9.40;4.43;;;;;;;8.50;95.39;101301.00;5037190;27;96532;-30
2023/03/19 06:18:42;;;;;;;7.50;4.05;;;;;;;8.43;95.94;101296.81;5037278;27;96814;-31
2023/03/19 06:21:08;;;;;;;5.00;3.78;;;;;;;8.45;96.21;101305.72;5037033;28;97942;-29
2023/03/19 06:23:33;;;;;;;6.65;3.83;;;;;;;8.42;97.39;101301.34;5035726;28;101536;-29
2023/03/19 06:25:58;;;;;;;6.47;3.58;;;;;;;8.50;96.68;101315.34;5036628;27;96860;-29
2023/03/19 06:28:24;;;;;;;7.00;3.72;;;;;;;8.55;96.53;101314.28;5036537;27;96812;-29
2023/03/19 06:30:49;;;;;;;7.53;4.18;;;;;;;8.57;96.45;101312.41;5035573;28;99639;-30
2023/03/19 06:33:15;;;;;;;7.88;4.00;;;;;;;8.60;96.37;101314.94;5036204;28;99557;-30
2023/03/19 06:35:41;;;;;;;7.95;4.55;;;;;;;8.58;95.62;101314.13;5036860;27;96582;-29
2023/03/19 06:38:06;;;;;;;6.35;3.92;;;;;;;8.53;96.36;101324.28;5035461;28;96901;-31
2023/03/19 06:40:32;;;;;;;6.40;4.28;;;;;;;8.54;95.90;101324.22;5036524;28;98043;-29
2023/03/19 06:42:58;;;;;;;9.27;4.53;;;;;;;8.57;96.21;101328.59;5036586;27;97329;-30
2023/03/19 06:45:23;;;;;;;6.38;3.65;;;;;;;8.63;96.21;101329.19;5036712;27;96534;-29
2023/03/19 06:47:49;;;;;;;9.60;4.30;;;;;;;8.64;96.10;101330.94;5037212;27;96865;-29
2023/03/19 06:50:16;;;;;;;6.32;3.88;;;;;;;8.68;95.57;101326.28;5034943;28;101383;-29
2023/03/19 06:52:42;;;;;;;11.82;5.10;;;;;;;8.73;95.29;101340.44;5034736;28;101359;-30
2023/03/19 06:55:08;;;;;;;6.90;4.40;;;;;;;8.74;95.59;101336.78;5034771;28;96650;-30
2023/03/19 06:57:34;;;;;;;8.40;4.88;;;;;;;8.78;95.27;101341.13;5035101;28;96897;-29
2023/03/19 07:00:00;;;;;;;10.10;5.45;;;;;;;8.76;95.38;101351.09;5036186;27;99245;-29
2023/03/19 07:02:26;;;;;;;8.45;5.45;;;;;;;8.79;95.38;101344.69;5036203;27;97856;-29
2023/03/19 07:04:51;;;;;;;10.13;5.07;;;;;;;8.70;95.97;101354.97;5036396;28;96489;-29
2023/03/19 07:07:17;;;;;;;13.32;6.57;;;;;;;8.67;95.81;101357.78;5036283;27;96768;-30
2023/03/19 07:09:42;;;;;;;10.25;5.15;;;;;;;8.67;96.54;101354.22;5034782;28;100806;-29
2023/03/19 07:12:08;;;;;;;9.10;5.57;;;;;;;8.72;96.19;101357.59;5036468;27;97859;-30
2023/03/19 07:14:33;;;;;;;8.48;5.15;;;;;;;8.69;96.80;101361.31;5036094;27;96584;-30
2023/03/19 07:16:59;;;;;;;9.63;4.65;;;;;;;8.70;96.90;101363.09;5036203;27;96818;-31
2023/03/19 07:19:24;;;;;;;7.65;4.85;;;;;;;8.73;96.84;101362.06;5035308;27;99249;-29
2023/03/19 07:21:50;;;;;;;11.35;5.30;;;;;;;8.70;96.03;101360.38;5035681;27;99170;-30
2023/03/19 07:24:15;;;;;;;8.65;5.18;;;;;;;8.69;96.62;101355.03;5036154;27;96638;-30
2023/03/19 07:26:42;;;;;;;12.15;5.43;;;;;;;8.74;96.45;101365.63;5035522;27;99686;-29
2023/03/19 07:29:08;;;;;;;9.00;4.95;;;;;;;8.69;96.75;101365.84;5034184;28;100929;-30
2023/03/19 07:31:33;;;;;;;5.93;4.10;;;;;;;8.69;97.93;101374.81;5035336;28;99656;-30
2023/03/19 07:33:58;;;;;;;11.20;4.80;;;;;;;8.68;97.52;101372.19;5036062;28;96595;-29
2023/03/19 07:36:24;;;;;;;6.00;4.03;;;;;;;8.71;98.22;101377.44;5036390;27;96755;-31
2023/03/19 07:38:49;;;;;;;6.93;4.10;;;;;;;8.71;97.77;101383.72;5035768;27;98136;-29
2023/03/19 07:41:15;;;;;;;7.85;3.72;;;;;;;8.76;97.17;101382.66;5035334;27;99121;-29
2023/03/19 07:43:40;;;;;;;9.98;3.80;;;;;;;8.85;97.00;101380.41;5035436;27;96738;-30
2023/03/19 07:46:06;;;;;;;7.43;3.95;;;;;;;8.84;96.52;101378.66;5035899;27;96783;-29
2023/03/19 07:48:32;;;;;;;9.15;4.00;;;;;;;8.80;97.12;101381.56;5033953;28;100979;-29
2023/03/19 07:50:57;;;;;;;10.25;4.55;;;;;;;8.83;96.76;101398.50;5035319;27;99144;-29
2023/03/19 07:53:23;;;;;;;7.47;4.22;;;;;;;8.85;96.51;101402.00;5035892;28;96506;-30
2023/03/19 07:55:48;;;;;;;8.15;4.20;;;;;;;8.84;96.61;101389.47;5035583;27;97128;-30
2023/03/19 07:58:13;;;;;;;6.20;4.00;;;;;;;8.88;96.08;101398.28;5035179;27;99492;-29
2023/03/19 08:00:39;;;;;;;8.48;4.55;;;;;;;8.87;96.54;101408.22;5035190;28;99454;-30
2023/03/19 08:03:05;;;;;;;8.52;4.47;;;;;;;8.86;95.96;101405.59;5034209;28;96563;-30
2023/03/19 08:05:30;;;;;;;6.63;3.42;;;;;;;8.81;97.41;101407.63;5035254;27;96832;-30
2023/03/19 08:07:56;;;;;;;7.05;4.10;;;;;;;8.80;96.57;101416.69;5034666;27;97991;-30
2023/03/19 08:10:21;;;;;;;8.70;4.00;;;;;;;8.77;97.10;101409.59;5035299;27;97771;-29
2023/03/19 08:12:47;;;;;;;7.57;3.95;;;;;;;8.83;97.68;101422.81;5033894;28;96622;-29
2023/03/19 08:15:13;;;;;;;5.80;3.17;;;;;;;8.89;97.14;101424.34;5035190;28;96860;-29
2023/03/19 08:17:39;;;;;;;5.45;3.47;;;;;;;8.85;96.02;101426.31;5034893;27;99633;-30
2023/03/19 08:20:09;;;;;;;11.43;3.85;;;;;;;8.89;96.62;101427.03;5034878;27;99159;-29
2023/03/19 08:22:36;;;;;;;6.57;3.28;;;;;;;8.92;96.29;101425.09;5033843;28;96744;-30
2023/03/19 08:25:02;;;;;;;8.90;3.00;;;;;;;8.98;96.55;101423.06;5034198;28;96575;-29
2023/03/19 08:27:29;;;;;;;8.00;2.63;;;;;;;8.96;95.84;101425.81;5032729;28;100719;-29
2023/03/19 08:29:55;;;;;;;7.10;3.20;;;;;;;9.00;95.96;101431.97;5034274;28;99163;-29
2023/03/19 08:32:20;;;;;;;7.90;3.58;;;;;;;9.00;95.34;101434.69;5034446;27;96660;-30
2023/03/19 08:34:46;;;;;;;7.40;3.80;;;;;;;8.99;95.84;101438.34;5035160;28;96531;-29
2023/03/19 08:37:11;;;;;;;6.47;3.10;;;;;;;9.03;95.66;101439.94;5034029;27;97235;-29
2023/03/19 08:39:36;;;;;;;6.28;3.58;;;;;;;9.00;96.11;101437.38;5034793;27;97791;-31
2023/03/19 08:42:02;;;;;;;8.88;3.63;;;;;;;9.03;96.36;101442.63;5035148;27;96720;-29
2023/03/19 08:44:27;;;;;;;5.82;2.92;;;;;;;9.09;95.86;101443.25;5034658;27;96799;-29
2023/03/19 08:46:52;;;;;;;8.85;3.03;;;;;;;9.08;96.46;101451.41;5034360;27;100347;-30
2023/03/19 08:49:18;;;;;;;7.78;3.33;;;;;;;9.11;95.48;101454.00;5034259;27;98385;-30
2023/03/19 08:51:43;;;;;;;8.30;3.17;;;;;;;9.07;96.01;101449.66;5031770;28;97124;-35
2023/03/19 08:54:10;;;;;;;6.95;3.83;;;;;;;9.08;96.03;101452.31;5032511;27;96725;-30
2023/03/19 08:56:35;;;;;;;7.28;3.20;;;;;;;9.14;94.80;101459.25;5030222;28;101080;-32
2023/03/19 08:59:00;;;;;;;7.95;3.05;;;;;;;9.19;95.37;101459.03;5031995;28;97927;-29
2023/03/19 09:01:26;;;;;;;6.07;3.13;;;;;;;9.26;95.38;101461.38;5032685;27;96646;-30
2023/03/19 09:03:51;;;;;;;5.35;2.17;;;;;;;9.32;94.69;101449.44;5033156;28;96866;-33
2023/03/19 09:06:17;;;;;;;3.92;2.45;;;;;;;9.39;94.87;101458.09;5034214;27;99214;-31
2023/03/19 09:08:43;;;;;;;11.45;3.15;;;;;;;9.42;94.42;101458.84;5034216;27;98877;-29
2023/03/19 09:11:09;;;;;;;8.10;3.10;;;;;;;9.47;94.30;101459.50;5033316;28;96846;-29
2023/03/19 09:13:35;;;;;;;7.63;3.50;;;;;;;9.49;93.51;101464.84;5034489;28;96875;-29
2023/03/19 09:16:01;;;;;;;9.57;3.50;;;;;;;9.51;93.79;101471.03;5032837;28;98930;-29
2023/03/19 09:18:26;;;;;;;9.23;3.45;;;;;;;9.51;94.56;101471.03;5034026;27;99242;-30
2023/03/19 09:20:52;;;;;;;11.75;3.67;;;;;;;9.50;94.09;101474.72;5034050;27;96464;-29
2023/03/19 09:23:18;;;;;;;6.70;3.20;;;;;;;9.51;93.97;101469.25;5033152;28;96787;-29
2023/03/19 09:25:44;;;;;;;8.10;3.92;;;;;;;9.57;93.89;101479.75;5033855;28;98922;-29
2023/03/19 09:28:10;;;;;;;7.60;2.90;;;;;;;9.57;94.40;101474.34;5032228;27;100762;-31
2023/03/19 09:30:35;;;;;;;6.90;3.35;;;;;;;9.59;94.09;101473.41;5034608;28;96426;-30
2023/03/19 09:33:01;;;;;;;8.68;4.13;;;;;;;9.59;93.43;101477.00;5034376;27;96756;-30
2023/03/19 09:35:30;;;;;;;6.38;3.25;;;;;;;9.62;93.58;101473.25;5033924;27;99816;-31
2023/03/19 09:37:56;;;;;;;8.70;4.25;;;;;;;9.62;93.62;101484.06;5034218;28;97862;-30
2023/03/19 09:40:31;;;;;;;5.88;2.97;;;;;;;9.64;94.09;101488.47;5032907;28;96704;-30
2023/03/19 09:43:08;;;;;;;7.80;3.63;;;;;;;9.67;93.68;101496.41;5032811;28;96686;-29
2023/03/19 09:45:34;;;;;;;6.38;2.72;;;;;;;9.69;94.00;101496.34;5031986;28;100918;-29
2023/03/19 09:48:06;;;;;;;9.63;3.75;;;;;;;9.72;93.68;101502.47;5033694;27;99476;-29
2023/03/19 09:50:36;;;;;;;6.65;3.60;;;;;;;9.73;93.82;101509.66;5034012;27;96630;-29
2023/03/19 09:53:22;;;;;;;5.00;3.03;;;;;;;9.69;94.09;101513.47;5032704;28;96633;-29
2023/03/19 09:55:51;;;;;;;8.25;3.80;;;;;;;9.67;93.77;101515.34;5033594;28;98790;-31
2023/03/19 09:58:25;;;;;;;5.88;3.28;;;;;;;9.66;93.58;101515.44;5032372;28;100866;-30
2023/03/19 10:00:52;;;;;;;7.38;3.72;;;;;;;9.68;94.17;101522.53;5032629;28;96854;-30
2023/03/19 10:03:27;;;;;;;6.57;2.95;;;;;;;9.66;94.55;101524.44;5032580;27;96935;-29
2023/03/19 10:06:01;;;;;;;7.45;4.10;;;;;;;9.70;94.08;101525.16;5035335;28;100740;-30
2023/03/19 10:09:01;;;;;;;6.50;3.65;;;;;;;9.71;93.65;101533.22;5036674;28;97881;-29
2023/03/19 10:12:12;;;;;;;6.35;3.10;;;;;;;9.71;94.15;101535.91;5035412;28;96545;-30
2023/03/19 10:14:54;;;;;;;5.63;3.35;;;;;;;9.72;93.88;101537.66;5037304;27;96608;-30
2023/03/19 10:17:37;;;;;;;5.85;3.35;;;;;;;9.77;93.82;101538.34;5035574;27;101115;-30
2023/03/19 10:20:15;;;;;;;9.48;3.38;;;;;;;9.75;94.48;101540.25;5036220;27;97993;-29
2023/03/19 10:22:46;;;;;;;9.35;3.85;;;;;;;9.73;94.29;101534.00;5036977;28;96606;-28
2023/03/19 10:25:18;;;;;;;8.73;3.80;;;;;;;9.74;94.25;101543.88;5035213;28;96756;-29
2023/03/19 10:27:46;;;;;;;6.07;3.00;;;;;;;9.78;94.23;101552.75;5034086;27;99191;-29
2023/03/19 10:30:14;;;;;;;6.75;3.53;;;;;;;9.76;93.69;101557.34;5035653;28;100669;-29
2023/03/19 10:32:49;;;;;;;4.70;3.05;;;;;;;9.77;93.93;101559.09;5036829;27;96765;-30
2023/03/19 10:35:28;;;;;;;5.40;3.28;;;;;;;9.83;93.84;101552.53;5035692;28;96693;-29
2023/03/19 10:37:54;;;;;;;6.97;3.10;;;;;;;9.84;94.11;101549.72;5034816;28;101007;-30
2023/03/19 10:40:25;;;;;;;7.72;4.00;;;;;;;9.82;94.01;101548.94;5035647;27;99173;-30
2023/03/19 10:43:04;;;;;;;5.20;2.90;;;;;;;9.91;93.57;101562.00;5035478;28;96570;-29
2023/03/19 10:45:32;;;;;;;5.70;2.83;;;;;;;9.94;93.31;101566.44;5036514;27;97757;-29
2023/03/19 10:48:01;;;;;;;6.95;3.63;;;;;;;9.87;94.22;101562.25;5035024;28;101125;-29
2023/03/19 10:50:48;;;;;;;7.05;3.20;;;;;;;9.90;93.61;101567.53;5035035;28;101221;-29
2023/03/19 10:53:13;;;;;;;6.70;3.72;;;;;;;9.98;93.77;101565.31;5035075;28;96769;-29
2023/03/19 10:56:07;;;;;;;5.70;3.35;;;;;;;9.98;93.37;101571.59;5036544;28;96762;-31
2023/03/19 10:58:35;;;;;;;6.07;3.63;;;;;;;9.98;93.53;101568.03;5034256;28;98144;-29
2023/03/19 11:01:07;;;;;;;5.80;3.60;;;;;;;10.06;93.15;101570.34;5034004;28;100889;-29
2023/03/19 11:03:34;;;;;;;;;;;;;;;10.07;93.18;101567.59;5034549;27;97037;-31
2023/03/19 11:06:06;;;;;;;6.13;2.97;;;;;;;10.13;93.17;101574.53;5035112;28;96827;-29
2023/03/19 11:08:36;;;;;;;6.47;3.28;;;;;;;10.13;92.58;101567.31;5036010;27;99700;-29
2023/03/19 11:11:02;;;;;;;11.65;4.38;;;;;;;10.16;92.64;101572.56;5034640;28;100750;-29
2023/03/19 11:13:29;;;;;;;9.27;3.83;;;;;;;10.22;93.03;101563.25;5034724;28;98573;-30
2023/03/19 11:15:58;;;;;;;6.25;3.65;;;;;;;10.27;92.31;101569.31;5034011;27;96854;-30
2023/03/19 11:18:29;;;;;;;9.07;4.45;;;;;;;10.29;92.68;101572.00;5034740;28;100752;-31
2023/03/19 11:21:05;;;;;;;7.55;4.07;;;;;;;10.31;92.20;101568.25;5034970;28;100849;-29
2023/03/19 11:23:38;;;;;;;6.85;4.05;;;;;;;10.32;92.23;101574.53;5034338;28;97739;-30
2023/03/19 11:26:04;;;;;;;9.45;3.58;;;;;;;10.38;92.22;101575.13;5034240;28;96870;-30
2023/03/19 11:28:33;;;;;;;7.18;4.03;;;;;;;10.46;91.67;101574.75;5032437;27;101042;-29